sensor_id;sensor_type;location;lat;lon;timestamp;pressure;altitude;pressure_sealevel;temperature
13304;BMP280;6720;51.958;4.540;2022-07-19T00:01:25;101682.91;;;23.14
13304;BMP280;6720;51.958;4.540;2022-07-19T00:03:51;101676.84;;;23.10
13304;BMP280;6720;51.958;4.540;2022-07-19T00:06:16;101678.84;;;23.07
13304;BMP280;6720;51.958;4.540;2022-07-19T00:08:42;101679.16;;;23.01
13304;BMP280;6720;51.958;4.540;2022-07-19T00:11:07;101680.78;;;23.03
13304;BMP280;6720;51.958;4.540;2022-07-19T00:13:33;101678.25;;;23.02
13304;BMP280;6720;51.958;4.540;2022-07-19T00:15:58;101673.66;;;23.04
13304;BMP280;6720;51.958;4.540;2022-07-19T00:18:23;101669.44;;;23.00
13304;BMP280;6720;51.958;4.540;2022-07-19T00:20:49;101673.38;;;22.93
13304;BMP280;6720;51.958;4.540;2022-07-19T00:23:14;101678.41;;;22.99
13304;BMP280;6720;51.958;4.540;2022-07-19T00:25:40;101680.44;;;22.94
13304;BMP280;6720;51.958;4.540;2022-07-19T00:28:05;101677.00;;;22.92
13304;BMP280;6720;51.958;4.540;2022-07-19T00:30:31;101663.53;;;22.78
13304;BMP280;6720;51.958;4.540;2022-07-19T00:32:56;101663.03;;;22.87
13304;BMP280;6720;51.958;4.540;2022-07-19T00:35:21;101664.47;;;22.77
13304;BMP280;6720;51.958;4.540;2022-07-19T00:37:48;101663.53;;;22.78
13304;BMP280;6720;51.958;4.540;2022-07-19T00:40:14;101649.75;;;22.70
13304;BMP280;6720;51.958;4.540;2022-07-19T00:42:39;101664.03;;;22.69
13304;BMP280;6720;51.958;4.540;2022-07-19T00:45:05;101667.66;;;22.68
13304;BMP280;6720;51.958;4.540;2022-07-19T00:47:31;101668.19;;;22.74
13304;BMP280;6720;51.958;4.540;2022-07-19T00:49:57;101670.94;;;22.73
13304;BMP280;6720;51.958;4.540;2022-07-19T00:52:24;101672.50;;;22.77
13304;BMP280;6720;51.958;4.540;2022-07-19T00:54:52;101666.78;;;22.67
13304;BMP280;6720;51.958;4.540;2022-07-19T00:57:18;101670.34;;;22.68
13304;BMP280;6720;51.958;4.540;2022-07-19T00:59:44;101659.66;;;22.68
13304;BMP280;6720;51.958;4.540;2022-07-19T01:02:12;101659.38;;;22.57
13304;BMP280;6720;51.958;4.540;2022-07-19T01:04:38;101665.38;;;22.60
13304;BMP280;6720;51.958;4.540;2022-07-19T01:07:03;101667.19;;;22.60
13304;BMP280;6720;51.958;4.540;2022-07-19T01:09:29;101664.34;;;22.63
13304;BMP280;6720;51.958;4.540;2022-07-19T01:11:56;101659.69;;;22.51
13304;BMP280;6720;51.958;4.540;2022-07-19T01:14:22;101655.22;;;22.51
13304;BMP280;6720;51.958;4.540;2022-07-19T01:16:47;101658.81;;;22.50
13304;BMP280;6720;51.958;4.540;2022-07-19T01:19:13;101655.28;;;22.50
13304;BMP280;6720;51.958;4.540;2022-07-19T01:21:40;101659.94;;;22.45
13304;BMP280;6720;51.958;4.540;2022-07-19T01:24:05;101664.00;;;22.36
13304;BMP280;6720;51.958;4.540;2022-07-19T01:26:31;101658.59;;;22.38
13304;BMP280;6720;51.958;4.540;2022-07-19T01:28:56;101651.25;;;22.24
13304;BMP280;6720;51.958;4.540;2022-07-19T01:31:22;101656.72;;;22.23
13304;BMP280;6720;51.958;4.540;2022-07-19T01:33:47;101649.97;;;22.16
13304;BMP280;6720;51.958;4.540;2022-07-19T01:36:12;101653.31;;;22.19
13304;BMP280;6720;51.958;4.540;2022-07-19T01:38:38;101651.06;;;22.12
13304;BMP280;6720;51.958;4.540;2022-07-19T01:41:05;101643.69;;;22.17
13304;BMP280;6720;51.958;4.540;2022-07-19T01:43:30;101651.22;;;22.09
13304;BMP280;6720;51.958;4.540;2022-07-19T01:45:56;101650.13;;;22.13
13304;BMP280;6720;51.958;4.540;2022-07-19T01:48:21;101639.81;;;22.05
13304;BMP280;6720;51.958;4.540;2022-07-19T01:50:46;101648.25;;;21.98
13304;BMP280;6720;51.958;4.540;2022-07-19T01:53:12;101650.50;;;22.05
13304;BMP280;6720;51.958;4.540;2022-07-19T01:55:37;101646.34;;;22.00
13304;BMP280;6720;51.958;4.540;2022-07-19T01:58:04;101640.22;;;21.98
13304;BMP280;6720;51.958;4.540;2022-07-19T02:00:29;101645.56;;;21.98
13304;BMP280;6720;51.958;4.540;2022-07-19T02:02:55;101636.94;;;21.93
13304;BMP280;6720;51.958;4.540;2022-07-19T02:05:20;101635.84;;;21.97
13304;BMP280;6720;51.958;4.540;2022-07-19T02:07:46;101626.91;;;21.98
13304;BMP280;6720;51.958;4.540;2022-07-19T02:10:11;101641.47;;;21.91
13304;BMP280;6720;51.958;4.540;2022-07-19T02:12:37;101636.06;;;21.92
13304;BMP280;6720;51.958;4.540;2022-07-19T02:15:03;101633.25;;;21.95
13304;BMP280;6720;51.958;4.540;2022-07-19T02:17:29;101622.75;;;21.92
13304;BMP280;6720;51.958;4.540;2022-07-19T02:19:54;101618.44;;;21.90
13304;BMP280;6720;51.958;4.540;2022-07-19T02:22:19;101627.19;;;21.92
13304;BMP280;6720;51.958;4.540;2022-07-19T02:24:45;101629.09;;;21.90
13304;BMP280;6720;51.958;4.540;2022-07-19T02:27:10;101625.47;;;21.91
13304;BMP280;6720;51.958;4.540;2022-07-19T02:29:36;101618.75;;;21.84
13304;BMP280;6720;51.958;4.540;2022-07-19T02:32:02;101619.13;;;21.76
13304;BMP280;6720;51.958;4.540;2022-07-19T02:34:27;101619.63;;;21.84
13304;BMP280;6720;51.958;4.540;2022-07-19T02:36:52;101619.97;;;21.77
13304;BMP280;6720;51.958;4.540;2022-07-19T02:39:18;101626.66;;;21.85
13304;BMP280;6720;51.958;4.540;2022-07-19T02:41:43;101622.44;;;21.81
13304;BMP280;6720;51.958;4.540;2022-07-19T02:44:09;101620.63;;;21.82
13304;BMP280;6720;51.958;4.540;2022-07-19T02:46:34;101617.31;;;21.77
13304;BMP280;6720;51.958;4.540;2022-07-19T02:48:59;101613.16;;;21.71
13304;BMP280;6720;51.958;4.540;2022-07-19T02:51:25;101612.44;;;21.68
13304;BMP280;6720;51.958;4.540;2022-07-19T02:53:51;101615.88;;;21.70
13304;BMP280;6720;51.958;4.540;2022-07-19T02:56:19;101606.06;;;21.70
13304;BMP280;6720;51.958;4.540;2022-07-19T02:58:45;101605.19;;;21.70
13304;BMP280;6720;51.958;4.540;2022-07-19T03:01:10;101608.97;;;21.66
13304;BMP280;6720;51.958;4.540;2022-07-19T03:03:35;101613.59;;;21.62
13304;BMP280;6720;51.958;4.540;2022-07-19T03:06:13;101611.09;;;21.59
13304;BMP280;6720;51.958;4.540;2022-07-19T03:08:39;101602.00;;;21.46
13304;BMP280;6720;51.958;4.540;2022-07-19T03:11:04;101610.06;;;21.44
13304;BMP280;6720;51.958;4.540;2022-07-19T03:13:30;101615.53;;;21.41
13304;BMP280;6720;51.958;4.540;2022-07-19T03:15:55;101613.66;;;21.43
13304;BMP280;6720;51.958;4.540;2022-07-19T03:18:21;101608.63;;;21.37
13304;BMP280;6720;51.958;4.540;2022-07-19T03:20:46;101609.50;;;21.38
13304;BMP280;6720;51.958;4.540;2022-07-19T03:23:12;101602.41;;;21.37
13304;BMP280;6720;51.958;4.540;2022-07-19T03:25:37;101615.41;;;21.26
13304;BMP280;6720;51.958;4.540;2022-07-19T03:28:05;101592.59;;;21.20
13304;BMP280;6720;51.958;4.540;2022-07-19T03:30:31;101602.00;;;21.27
13304;BMP280;6720;51.958;4.540;2022-07-19T03:32:59;101606.59;;;21.42
13304;BMP280;6720;51.958;4.540;2022-07-19T03:35:25;101601.09;;;21.28
13304;BMP280;6720;51.958;4.540;2022-07-19T03:37:50;101605.16;;;21.35
13304;BMP280;6720;51.958;4.540;2022-07-19T03:40:15;101602.41;;;21.37
13304;BMP280;6720;51.958;4.540;2022-07-19T03:42:41;101599.53;;;21.41
13304;BMP280;6720;51.958;4.540;2022-07-19T03:45:07;101605.47;;;21.29
13304;BMP280;6720;51.958;4.540;2022-07-19T03:47:33;101599.34;;;21.27
13304;BMP280;6720;51.958;4.540;2022-07-19T03:49:58;101592.94;;;21.31
13304;BMP280;6720;51.958;4.540;2022-07-19T03:52:24;101592.81;;;21.69
13304;BMP280;6720;51.958;4.540;2022-07-19T03:54:50;101602.50;;;21.35
13304;BMP280;6720;51.958;4.540;2022-07-19T03:57:15;101605.13;;;21.18
13304;BMP280;6720;51.958;4.540;2022-07-19T03:59:41;101597.41;;;21.12
13304;BMP280;6720;51.958;4.540;2022-07-19T04:02:06;101600.91;;;21.14
13304;BMP280;6720;51.958;4.540;2022-07-19T04:04:32;101597.59;;;21.09
13304;BMP280;6720;51.958;4.540;2022-07-19T04:06:57;101615.44;;;21.07
13304;BMP280;6720;51.958;4.540;2022-07-19T04:09:23;101607.31;;;21.10
13304;BMP280;6720;51.958;4.540;2022-07-19T04:11:48;101600.16;;;21.11
13304;BMP280;6720;51.958;4.540;2022-07-19T04:14:14;101599.94;;;21.15
13304;BMP280;6720;51.958;4.540;2022-07-19T04:16:40;101603.78;;;21.10
13304;BMP280;6720;51.958;4.540;2022-07-19T04:19:05;101598.50;;;21.08
13304;BMP280;6720;51.958;4.540;2022-07-19T04:21:30;101608.25;;;21.09
13304;BMP280;6720;51.958;4.540;2022-07-19T04:23:56;101606.00;;;21.00
13304;BMP280;6720;51.958;4.540;2022-07-19T04:26:21;101606.00;;;21.00
13304;BMP280;6720;51.958;4.540;2022-07-19T04:28:47;101605.88;;;21.03
13304;BMP280;6720;51.958;4.540;2022-07-19T04:31:12;101609.16;;;21.08
13304;BMP280;6720;51.958;4.540;2022-07-19T04:33:40;101606.75;;;21.04
13304;BMP280;6720;51.958;4.540;2022-07-19T04:36:05;101604.09;;;21.04
13304;BMP280;6720;51.958;4.540;2022-07-19T04:38:33;101603.84;;;21.08
13304;BMP280;6720;51.958;4.540;2022-07-19T04:40:58;101611.53;;;21.14
13304;BMP280;6720;51.958;4.540;2022-07-19T04:43:23;101600.91;;;21.14
13304;BMP280;6720;51.958;4.540;2022-07-19T04:45:49;101598.72;;;21.22
13304;BMP280;6720;51.958;4.540;2022-07-19T04:48:14;101605.28;;;21.15
13304;BMP280;6720;51.958;4.540;2022-07-19T04:50:40;101597.41;;;21.12
13304;BMP280;6720;51.958;4.540;2022-07-19T04:53:06;101598.31;;;21.13
13304;BMP280;6720;51.958;4.540;2022-07-19T04:55:32;101599.19;;;21.13
13304;BMP280;6720;51.958;4.540;2022-07-19T04:57:58;101600.91;;;21.14
13304;BMP280;6720;51.958;4.540;2022-07-19T05:00:24;101597.00;;;21.21
13304;BMP280;6720;51.958;4.540;2022-07-19T05:02:49;101589.91;;;21.20
13304;BMP280;6720;51.958;4.540;2022-07-19T05:05:15;101596.84;;;21.24
13304;BMP280;6720;51.958;4.540;2022-07-19T05:07:41;101588.06;;;21.22
13304;BMP280;6720;51.958;4.540;2022-07-19T05:10:07;101595.03;;;21.25
13304;BMP280;6720;51.958;4.540;2022-07-19T05:12:33;101597.47;;;21.29
13304;BMP280;6720;51.958;4.540;2022-07-19T05:14:59;101589.34;;;21.32
13304;BMP280;6720;51.958;4.540;2022-07-19T05:17:24;101592.63;;;21.37
13304;BMP280;6720;51.958;4.540;2022-07-19T05:19:50;101584.56;;;21.39
13304;BMP280;6720;51.958;4.540;2022-07-19T05:22:15;101585.34;;;21.41
13304;BMP280;6720;51.958;4.540;2022-07-19T05:24:41;101574.88;;;21.38
13304;BMP280;6720;51.958;4.540;2022-07-19T05:27:06;101591.31;;;21.46
13304;BMP280;6720;51.958;4.540;2022-07-19T05:29:31;101587.50;;;21.52
13304;BMP280;6720;51.958;4.540;2022-07-19T05:31:57;101570.00;;;21.46
13304;BMP280;6720;51.958;4.540;2022-07-19T05:34:22;101590.47;;;21.63
13304;BMP280;6720;51.958;4.540;2022-07-19T05:36:47;101592.97;;;21.66
13304;BMP280;6720;51.958;4.540;2022-07-19T05:39:14;101595.56;;;21.67
13304;BMP280;6720;51.958;4.540;2022-07-19T05:41:40;101598.03;;;21.72
13304;BMP280;6720;51.958;4.540;2022-07-19T05:44:05;101597.88;;;21.75
13304;BMP280;6720;51.958;4.540;2022-07-19T05:46:31;101594.13;;;21.79
13304;BMP280;6720;51.958;4.540;2022-07-19T05:48:56;101590.13;;;21.87
13304;BMP280;6720;51.958;4.540;2022-07-19T05:51:21;101586.44;;;21.90
13304;BMP280;6720;51.958;4.540;2022-07-19T05:53:47;101593.00;;;22.00
13304;BMP280;6720;51.958;4.540;2022-07-19T05:56:13;101594.41;;;22.07
13304;BMP280;6720;51.958;4.540;2022-07-19T05:58:38;101589.94;;;22.07
13304;BMP280;6720;51.958;4.540;2022-07-19T06:01:05;101585.06;;;22.15
13304;BMP280;6720;51.958;4.540;2022-07-19T06:03:46;101590.09;;;22.21
13304;BMP280;6720;51.958;4.540;2022-07-19T06:06:12;101588.91;;;22.27
13304;BMP280;6720;51.958;4.540;2022-07-19T06:08:39;101585.72;;;22.36
13304;BMP280;6720;51.958;4.540;2022-07-19T06:11:05;101577.50;;;22.40
13304;BMP280;6720;51.958;4.540;2022-07-19T06:13:30;101584.94;;;22.51
13304;BMP280;6720;51.958;4.540;2022-07-19T06:15:55;101587.81;;;22.63
13304;BMP280;6720;51.958;4.540;2022-07-19T06:18:21;101582.22;;;22.68
13304;BMP280;6720;51.958;4.540;2022-07-19T06:20:46;101582.75;;;22.74
13304;BMP280;6720;51.958;4.540;2022-07-19T06:23:12;101581.72;;;22.92
13304;BMP280;6720;51.958;4.540;2022-07-19T06:25:37;101580.69;;;22.95
13304;BMP280;6720;51.958;4.540;2022-07-19T06:28:03;101590.09;;;23.02
13304;BMP280;6720;51.958;4.540;2022-07-19T06:30:28;101591.63;;;23.06
13304;BMP280;6720;51.958;4.540;2022-07-19T06:32:54;101586.34;;;23.20
13304;BMP280;6720;51.958;4.540;2022-07-19T06:35:19;101585.31;;;23.22
13304;BMP280;6720;51.958;4.540;2022-07-19T06:37:45;101586.53;;;23.32
13304;BMP280;6720;51.958;4.540;2022-07-19T06:40:11;101592.22;;;23.42
13304;BMP280;6720;51.958;4.540;2022-07-19T06:42:36;101589.94;;;23.50
13304;BMP280;6720;51.958;4.540;2022-07-19T06:45:02;101589.94;;;23.50
13304;BMP280;6720;51.958;4.540;2022-07-19T06:47:28;101583.56;;;23.52
13304;BMP280;6720;51.958;4.540;2022-07-19T06:49:54;101589.84;;;23.67
13304;BMP280;6720;51.958;4.540;2022-07-19T06:52:19;101581.63;;;23.70
13304;BMP280;6720;51.958;4.540;2022-07-19T06:54:45;101580.22;;;23.78
13304;BMP280;6720;51.958;4.540;2022-07-19T06:57:10;101576.59;;;23.79
13304;BMP280;6720;51.958;4.540;2022-07-19T06:59:36;101576.91;;;23.89
13304;BMP280;6720;51.958;4.540;2022-07-19T07:02:01;101573.88;;;23.95
13304;BMP280;6720;51.958;4.540;2022-07-19T07:04:27;101576.03;;;24.04
13304;BMP280;6720;51.958;4.540;2022-07-19T07:06:52;101572.59;;;24.16
13304;BMP280;6720;51.958;4.540;2022-07-19T07:09:18;101558.63;;;24.25
13304;BMP280;6720;51.958;4.540;2022-07-19T07:11:43;101573.53;;;24.29
13304;BMP280;6720;51.958;4.540;2022-07-19T07:14:08;101561.50;;;24.36
13304;BMP280;6720;51.958;4.540;2022-07-19T07:16:34;101560.34;;;24.54
13304;BMP280;6720;51.958;4.540;2022-07-19T07:18:59;101531.25;;;24.48
13304;BMP280;6720;51.958;4.540;2022-07-19T07:21:25;101559.41;;;24.69
13304;BMP280;6720;51.958;4.540;2022-07-19T07:23:50;101560.41;;;24.81
13304;BMP280;6720;51.958;4.540;2022-07-19T07:26:15;101558.81;;;24.78
13304;BMP280;6720;51.958;4.540;2022-07-19T07:28:41;101559.94;;;24.88
13304;BMP280;6720;51.958;4.540;2022-07-19T07:31:06;101556.63;;;25.11
13304;BMP280;6720;51.958;4.540;2022-07-19T07:33:32;101560.53;;;25.20
13304;BMP280;6720;51.958;4.540;2022-07-19T07:35:57;101557.53;;;25.24
13304;BMP280;6720;51.958;4.540;2022-07-19T07:38:22;101563.63;;;25.40
13304;BMP280;6720;51.958;4.540;2022-07-19T07:40:48;101552.47;;;25.34
13304;BMP280;6720;51.958;4.540;2022-07-19T07:43:13;101547.94;;;25.34
13304;BMP280;6720;51.958;4.540;2022-07-19T07:45:39;101557.84;;;25.46
13304;BMP280;6720;51.958;4.540;2022-07-19T07:48:04;101562.03;;;25.89
13304;BMP280;6720;51.958;4.540;2022-07-19T07:50:30;101554.69;;;25.66
13304;BMP280;6720;51.958;4.540;2022-07-19T07:52:55;101556.53;;;25.78
13304;BMP280;6720;51.958;4.540;2022-07-19T07:55:21;101556.31;;;25.81
13304;BMP280;6720;51.958;4.540;2022-07-19T07:57:46;101557.53;;;26.02
13304;BMP280;6720;51.958;4.540;2022-07-19T08:00:12;101555.72;;;26.03
13304;BMP280;6720;51.958;4.540;2022-07-19T08:02:43;101549.38;;;26.04
13304;BMP280;6720;51.958;4.540;2022-07-19T08:05:09;101553.66;;;26.06
13304;BMP280;6720;51.958;4.540;2022-07-19T08:07:35;101554.97;;;26.26
13304;BMP280;6720;51.958;4.540;2022-07-19T08:10:01;101555.84;;;26.26
13304;BMP280;6720;51.958;4.540;2022-07-19T08:12:27;101545.09;;;26.26
13304;BMP280;6720;51.958;4.540;2022-07-19T08:14:52;101540.78;;;26.36
13304;BMP280;6720;51.958;4.540;2022-07-19T08:17:17;101544.84;;;26.54
13304;BMP280;6720;51.958;4.540;2022-07-19T08:19:43;101542.25;;;26.53
13304;BMP280;6720;51.958;4.540;2022-07-19T08:22:08;101544.94;;;26.65
13304;BMP280;6720;51.958;4.540;2022-07-19T08:24:33;101547.25;;;27.18
13304;BMP280;6720;51.958;4.540;2022-07-19T08:26:59;101547.75;;;27.00
13304;BMP280;6720;51.958;4.540;2022-07-19T08:29:24;101547.88;;;26.98
13304;BMP280;6720;51.958;4.540;2022-07-19T08:31:52;101547.06;;;27.09
13304;BMP280;6720;51.958;4.540;2022-07-19T08:34:17;101549.13;;;27.05
13304;BMP280;6720;51.958;4.540;2022-07-19T08:36:43;101541.13;;;27.16
13304;BMP280;6720;51.958;4.540;2022-07-19T08:39:08;101547.88;;;27.22
13304;BMP280;6720;51.958;4.540;2022-07-19T08:41:34;101538.19;;;27.19
13304;BMP280;6720;51.958;4.540;2022-07-19T08:44:02;101532.72;;;27.44
13304;BMP280;6720;51.958;4.540;2022-07-19T08:46:28;101534.66;;;27.42
13304;BMP280;6720;51.958;4.540;2022-07-19T08:48:54;101533.25;;;27.60
13304;BMP280;6720;51.958;4.540;2022-07-19T08:51:20;101526.41;;;27.56
13304;BMP280;6720;51.958;4.540;2022-07-19T08:53:48;101534.66;;;27.77
13304;BMP280;6720;51.958;4.540;2022-07-19T08:56:14;101530.22;;;28.00
13304;BMP280;6720;51.958;4.540;2022-07-19T08:58:58;101531.44;;;28.40
13304;BMP280;6720;51.958;4.540;2022-07-19T09:01:23;101526.81;;;28.42
13304;BMP280;6720;51.958;4.540;2022-07-19T09:06:45;101526.34;;;28.48
13304;BMP280;6720;51.958;4.540;2022-07-19T09:09:12;101529.34;;;28.87
13304;BMP280;6720;51.958;4.540;2022-07-19T09:11:40;101536.06;;;29.04
13304;BMP280;6720;51.958;4.540;2022-07-19T09:14:14;101526.63;;;28.98
13304;BMP280;6720;51.958;4.540;2022-07-19T09:17:06;101526.13;;;29.15
13304;BMP280;6720;51.958;4.540;2022-07-19T09:19:36;101520.31;;;29.20
13304;BMP280;6720;51.958;4.540;2022-07-19T09:22:10;101519.94;;;29.24
13304;BMP280;6720;51.958;4.540;2022-07-19T09:24:41;101520.81;;;29.77
13304;BMP280;6720;51.958;4.540;2022-07-19T09:27:08;101519.13;;;30.06
13304;BMP280;6720;51.958;4.540;2022-07-19T09:29:36;101522.88;;;30.35
13304;BMP280;6720;51.958;4.540;2022-07-19T09:37:19;101497.22;;;30.69
13304;BMP280;6720;51.958;4.540;2022-07-19T09:39:50;101516.31;;;31.26
13304;BMP280;6720;51.958;4.540;2022-07-19T09:42:20;101510.59;;;31.58
13304;BMP280;6720;51.958;4.540;2022-07-19T09:44:46;101512.59;;;31.84
13304;BMP280;6720;51.958;4.540;2022-07-19T09:47:12;101515.88;;;32.24
13304;BMP280;6720;51.958;4.540;2022-07-19T09:49:38;101516.13;;;32.40
13304;BMP280;6720;51.958;4.540;2022-07-19T09:52:03;101516.34;;;32.56
13304;BMP280;6720;51.958;4.540;2022-07-19T09:54:30;101506.84;;;32.97
13304;BMP280;6720;51.958;4.540;2022-07-19T09:56:57;101515.69;;;33.16
13304;BMP280;6720;51.958;4.540;2022-07-19T09:59:24;101513.06;;;33.59
13304;BMP280;6720;51.958;4.540;2022-07-19T10:01:52;101513.44;;;33.47
13304;BMP280;6720;51.958;4.540;2022-07-19T10:04:20;101511.94;;;33.87
13304;BMP280;6720;51.958;4.540;2022-07-19T10:06:48;101503.34;;;34.00
13304;BMP280;6720;51.958;4.540;2022-07-19T10:09:16;101508.84;;;34.34
13304;BMP280;6720;51.958;4.540;2022-07-19T10:11:43;101501.03;;;34.39
13304;BMP280;6720;51.958;4.540;2022-07-19T10:14:08;101500.97;;;34.31
13304;BMP280;6720;51.958;4.540;2022-07-19T10:19:24;101495.81;;;34.87
13304;BMP280;6720;51.958;4.540;2022-07-19T10:21:51;101495.06;;;34.77
13304;BMP280;6720;51.958;4.540;2022-07-19T10:27:16;101496.56;;;35.29
13304;BMP280;6720;51.958;4.540;2022-07-19T10:29:41;101497.25;;;35.71
13304;BMP280;6720;51.958;4.540;2022-07-19T10:32:10;101501.19;;;35.44
13304;BMP280;6720;51.958;4.540;2022-07-19T10:34:36;101501.28;;;35.19
13304;BMP280;6720;51.958;4.540;2022-07-19T10:37:04;101497.91;;;35.97
13304;BMP280;6720;51.958;4.540;2022-07-19T10:39:38;101501.00;;;35.70
13304;BMP280;6720;51.958;4.540;2022-07-19T10:42:19;101497.88;;;36.05
13304;BMP280;6720;51.958;4.540;2022-07-19T10:47:19;101494.09;;;36.30
13304;BMP280;6720;51.958;4.540;2022-07-19T10:49:46;101485.75;;;36.70
13304;BMP280;6720;51.958;4.540;2022-07-19T10:55:25;101479.34;;;37.08
13304;BMP280;6720;51.958;4.540;2022-07-19T10:58:09;101476.38;;;37.26
13304;BMP280;6720;51.958;4.540;2022-07-19T11:00:46;101478.84;;;37.72
13304;BMP280;6720;51.958;4.540;2022-07-19T11:05:58;101466.91;;;37.88
13304;BMP280;6720;51.958;4.540;2022-07-19T11:08:57;101474.34;;;37.79
13304;BMP280;6720;51.958;4.540;2022-07-19T11:11:32;101468.19;;;38.14
13304;BMP280;6720;51.958;4.540;2022-07-19T11:13:58;101471.91;;;38.42
13304;BMP280;6720;51.958;4.540;2022-07-19T11:16:25;101472.28;;;38.39
13304;BMP280;6720;51.958;4.540;2022-07-19T11:18:51;101463.84;;;37.31
13304;BMP280;6720;51.958;4.540;2022-07-19T11:21:17;101459.06;;;37.70
13304;BMP280;6720;51.958;4.540;2022-07-19T11:23:44;101463.63;;;38.21
13304;BMP280;6720;51.958;4.540;2022-07-19T11:26:14;101456.66;;;38.83
13304;BMP280;6720;51.958;4.540;2022-07-19T11:28:44;101461.19;;;38.26
13304;BMP280;6720;51.958;4.540;2022-07-19T11:31:21;101447.63;;;38.18
13304;BMP280;6720;51.958;4.540;2022-07-19T11:33:48;101453.84;;;39.12
13304;BMP280;6720;51.958;4.540;2022-07-19T11:36:15;101457.00;;;38.01
13304;BMP280;6720;51.958;4.540;2022-07-19T11:38:44;101448.66;;;39.24
13304;BMP280;6720;51.958;4.540;2022-07-19T11:41:21;101453.13;;;38.68
13304;BMP280;6720;51.958;4.540;2022-07-19T11:44:03;101451.56;;;38.30
13304;BMP280;6720;51.958;4.540;2022-07-19T11:46:36;101440.00;;;39.20
13304;BMP280;6720;51.958;4.540;2022-07-19T11:49:04;101444.00;;;38.03
13304;BMP280;6720;51.958;4.540;2022-07-19T11:51:30;101431.56;;;38.80
13304;BMP280;6720;51.958;4.540;2022-07-19T11:53:57;101426.53;;;38.83
13304;BMP280;6720;51.958;4.540;2022-07-19T11:56:25;101428.28;;;39.82
13304;BMP280;6720;51.958;4.540;2022-07-19T11:58:53;101425.53;;;39.82
13304;BMP280;6720;51.958;4.540;2022-07-19T12:01:24;101420.28;;;38.89
13304;BMP280;6720;51.958;4.540;2022-07-19T12:04:01;101417.53;;;40.21
13304;BMP280;6720;51.958;4.540;2022-07-19T12:06:36;101417.91;;;40.52
13304;BMP280;6720;51.958;4.540;2022-07-19T12:09:07;101418.63;;;39.64
13304;BMP280;6720;51.958;4.540;2022-07-19T12:12:11;101416.34;;;40.30
13304;BMP280;6720;51.958;4.540;2022-07-19T12:14:37;101408.28;;;40.88
13304;BMP280;6720;51.958;4.540;2022-07-19T12:19:47;101408.16;;;40.02
13304;BMP280;6720;51.958;4.540;2022-07-19T12:22:45;101409.41;;;40.47
13304;BMP280;6720;51.958;4.540;2022-07-19T12:25:10;101405.59;;;41.21
13304;BMP280;6720;51.958;4.540;2022-07-19T12:27:36;101403.56;;;40.16
13304;BMP280;6720;51.958;4.540;2022-07-19T12:30:04;101402.06;;;40.60
13304;BMP280;6720;51.958;4.540;2022-07-19T12:32:31;101395.03;;;41.44
13304;BMP280;6720;51.958;4.540;2022-07-19T12:35:00;101375.94;;;40.71
13304;BMP280;6720;51.958;4.540;2022-07-19T12:37:27;101395.00;;;41.18
13304;BMP280;6720;51.958;4.540;2022-07-19T12:42:56;101383.53;;;41.86
13304;BMP280;6720;51.958;4.540;2022-07-19T12:45:26;101375.91;;;41.75
13304;BMP280;6720;51.958;4.540;2022-07-19T12:47:51;101386.41;;;42.10
13304;BMP280;6720;51.958;4.540;2022-07-19T12:50:36;101364.97;;;41.62
13304;BMP280;6720;51.958;4.540;2022-07-19T12:53:04;101368.94;;;42.36
13304;BMP280;6720;51.958;4.540;2022-07-19T12:55:31;101369.16;;;41.71
13304;BMP280;6720;51.958;4.540;2022-07-19T12:57:58;101358.44;;;42.13
13304;BMP280;6720;51.958;4.540;2022-07-19T13:00:25;101366.47;;;42.66
13304;BMP280;6720;51.958;4.540;2022-07-19T13:02:51;101364.34;;;42.30
13304;BMP280;6720;51.958;4.540;2022-07-19T13:05:18;101359.91;;;42.60
13304;BMP280;6720;51.958;4.540;2022-07-19T13:07:44;101354.28;;;41.98
13304;BMP280;6720;51.958;4.540;2022-07-19T13:10:10;101364.63;;;42.53
13304;BMP280;6720;51.958;4.540;2022-07-19T13:12:35;101361.88;;;42.84
13304;BMP280;6720;51.958;4.540;2022-07-19T13:15:02;101344.03;;;41.22
13304;BMP280;6720;51.958;4.540;2022-07-19T13:17:30;101358.22;;;41.19
13304;BMP280;6720;51.958;4.540;2022-07-19T13:19:56;101355.81;;;42.38
13304;BMP280;6720;51.958;4.540;2022-07-19T13:22:21;101344.81;;;40.57
13304;BMP280;6720;51.958;4.540;2022-07-19T13:24:47;101351.66;;;41.46
13304;BMP280;6720;51.958;4.540;2022-07-19T13:27:12;101344.28;;;41.27
13304;BMP280;6720;51.958;4.540;2022-07-19T13:29:40;101344.09;;;42.05
13304;BMP280;6720;51.958;4.540;2022-07-19T13:32:06;101337.16;;;42.40
13304;BMP280;6720;51.958;4.540;2022-07-19T13:34:32;101334.59;;;42.45
13304;BMP280;6720;51.958;4.540;2022-07-19T13:36:58;101329.81;;;42.65
13304;BMP280;6720;51.958;4.540;2022-07-19T13:39:23;101333.03;;;42.18
13304;BMP280;6720;51.958;4.540;2022-07-19T13:41:50;101316.81;;;42.72
13304;BMP280;6720;51.958;4.540;2022-07-19T13:44:16;101320.63;;;41.96
13304;BMP280;6720;51.958;4.540;2022-07-19T13:46:41;101321.38;;;42.85
13304;BMP280;6720;51.958;4.540;2022-07-19T13:49:07;101329.03;;;42.51
13304;BMP280;6720;51.958;4.540;2022-07-19T13:51:32;101310.59;;;42.83
13304;BMP280;6720;51.958;4.540;2022-07-19T13:53:57;101319.88;;;43.13
13304;BMP280;6720;51.958;4.540;2022-07-19T13:56:23;101316.53;;;41.41
13304;BMP280;6720;51.958;4.540;2022-07-19T13:58:49;101305.06;;;41.70
13304;BMP280;6720;51.958;4.540;2022-07-19T14:01:15;101315.06;;;41.26
13304;BMP280;6720;51.958;4.540;2022-07-19T14:03:40;101313.16;;;41.33
13304;BMP280;6720;51.958;4.540;2022-07-19T14:06:05;101310.03;;;42.75
13304;BMP280;6720;51.958;4.540;2022-07-19T14:08:31;101305.63;;;42.60
13304;BMP280;6720;51.958;4.540;2022-07-19T14:11:01;101288.16;;;41.41
13304;BMP280;6720;51.958;4.540;2022-07-19T14:13:30;101297.81;;;41.89
13304;BMP280;6720;51.958;4.540;2022-07-19T14:15:55;101297.09;;;42.75
13304;BMP280;6720;51.958;4.540;2022-07-19T14:18:21;101295.28;;;42.87
13304;BMP280;6720;51.958;4.540;2022-07-19T14:20:46;101291.56;;;43.24
13304;BMP280;6720;51.958;4.540;2022-07-19T14:23:13;101287.19;;;42.67
13304;BMP280;6720;51.958;4.540;2022-07-19T14:25:40;101289.78;;;43.54
13304;BMP280;6720;51.958;4.540;2022-07-19T14:28:06;101291.97;;;42.79
13304;BMP280;6720;51.958;4.540;2022-07-19T14:30:31;101290.69;;;43.66
13304;BMP280;6720;51.958;4.540;2022-07-19T14:32:57;101291.13;;;42.78
13304;BMP280;6720;51.958;4.540;2022-07-19T14:35:23;101271.16;;;43.07